Aérodrome :
LOGIN :

S'inscrire | Disclaimer

   EN    FR    IT 

 










Légende :    VFR   VFR Marginal   IFR   IFR Intensif   IFR Très Intensif
Visi : 
Plafond : 
>= 8 km
>= 3000ft
5 à 8 km
1000 à 3000 ft
1500m à 5 km
500 à 1000 ft
800 à 1500m
200 à 500 ft
< 800m
< 200 ft
Symboles :   Orages  Brouillard  Fortes neiges  Fortes précipitations  Vent > 20 kt
SIGMETs :   Divers  Orages  Givrage  Turbulence  Onde Orograph.  Cendres Volcan.






- Altitude de l'aérodrome : 40 ft
- Code IATA : RMI


LIPR - Federico Fellini Int. Rimini

DERNIER METAR :
  • 110150Z AUTO 01007KT 9999 NCD 09/M01 Q1019

METARs EXPIRÉS :
  • 110120Z AUTO 02007KT 9999 NCD 09/M00 Q1020
  • 110050Z AUTO 03007KT 9999 NCD 09/M00 Q1020
  • 110020Z AUTO 04008KT 010V070 9999 NCD 09/M00 Q1020
  • 102350Z AUTO 04007KT 9999 NCD 09/M00 Q1020
  • 102320Z AUTO 04009KT 010V070 9999 NCD 10/00 Q1020

TAF TAF LIPR
Valide du 11 à 00h jusqu'au 11 à 09h UTC


102300Z 1100/1109 03010KT 9999 FEW040
BECMG 1100/1102 VRB05KT



MET'MAP, la Météo Aéronautique d'un coup d'oeil ! - Copyright ORBIFLY Décembre 2007 - Disclaimer

ORBIFLY MET'MAP TEAM :

Programmation & Développement : Alexandra Zaïnal
Sur une idée originale de : Baudouin d'Aumeries
Assistance à la programmation : Marc-Olivier Méhu
Soutien technique & logistique : Manuel Goepfert

Contact : metmap@orbifly.com




SOURCES & CREDITS :

   NOAA